createdAt,value
2022-10-04T00:02:03.090Z,23.15
2022-10-04T00:04:35.005Z,23.05
2022-10-04T00:07:07.849Z,23.04
2022-10-04T00:09:42.098Z,22.54
2022-10-04T00:12:18.542Z,22.74
2022-10-04T00:14:45.961Z,21.99
2022-10-04T00:17:18.636Z,21.71
2022-10-04T00:19:48.054Z,22.04
2022-10-04T00:22:44.482Z,22.01
2022-10-04T00:25:13.590Z,21.62
2022-10-04T00:28:01.239Z,21.56
2022-10-04T00:30:38.070Z,21.94
2022-10-04T00:33:04.959Z,22.02
2022-10-04T00:35:31.846Z,21.50
2022-10-04T00:38:26.193Z,21.63
2022-10-04T00:41:02.106Z,22.32
2022-10-04T00:43:41.758Z,21.80
2022-10-04T00:46:22.521Z,21.94
2022-10-04T00:48:56.322Z,23.51
2022-10-04T00:51:28.537Z,22.51
2022-10-04T00:54:00.251Z,21.57
2022-10-04T00:56:38.174Z,23.44
2022-10-04T00:59:39.665Z,22.17
2022-10-04T01:02:28.098Z,22.73
2022-10-04T01:04:59.623Z,22.25
2022-10-04T01:07:35.531Z,22.01
2022-10-04T01:10:09.083Z,22.50
2022-10-04T01:12:57.093Z,22.18
2022-10-04T01:15:37.346Z,22.43
2022-10-04T01:18:14.624Z,21.90
2022-10-04T01:21:10.247Z,21.73
2022-10-04T01:23:49.518Z,22.19
2022-10-04T01:26:32.523Z,21.81
2022-10-04T01:29:03.803Z,23.51
2022-10-04T01:31:34.227Z,24.45
2022-10-04T01:34:02.818Z,23.61
2022-10-04T01:36:29.706Z,23.54
2022-10-04T01:38:57.265Z,23.17
2022-10-04T01:41:30.173Z,23.92
2022-10-04T01:44:00.987Z,24.25
2022-10-04T01:46:36.433Z,24.05
2022-10-04T01:49:10.498Z,23.14
2022-10-04T01:51:44.229Z,22.33
2022-10-04T01:54:17.197Z,23.53
2022-10-04T01:56:53.830Z,23.46
2022-10-04T01:59:32.984Z,23.14
2022-10-04T02:02:06.542Z,21.97
2022-10-04T02:04:38.994Z,23.70
2022-10-04T02:07:13.702Z,23.13
2022-10-04T02:09:44.465Z,22.79
2022-10-04T02:12:17.111Z,23.23
2022-10-04T02:14:52.707Z,24.74
2022-10-04T02:17:28.271Z,22.57
2022-10-04T02:19:56.572Z,23.79
2022-10-04T02:22:25.622Z,22.68
2022-10-04T02:24:55.910Z,22.89
2022-10-04T02:27:29.395Z,22.88
2022-10-04T02:30:11.082Z,22.74
2022-10-04T02:33:02.459Z,22.76
2022-10-04T02:35:35.826Z,21.54
2022-10-04T02:38:24.573Z,22.79
2022-10-04T02:41:08.794Z,22.90
2022-10-04T02:43:45.409Z,23.34
2022-10-04T02:46:24.493Z,22.97
2022-10-04T02:48:58.686Z,22.85
2022-10-04T02:51:31.441Z,22.00
2022-10-04T02:54:08.280Z,22.24
2022-10-04T02:56:36.983Z,23.47
2022-10-04T02:59:05.755Z,22.78
2022-10-04T03:01:52.860Z,22.23
2022-10-04T03:04:26.829Z,21.82
2022-10-04T03:06:56.052Z,23.01
2022-10-04T03:09:29.502Z,22.69
2022-10-04T03:11:57.216Z,23.08
2022-10-04T03:14:26.437Z,21.81
2022-10-04T03:16:56.522Z,22.17
2022-10-04T03:19:26.945Z,23.37
2022-10-04T03:21:57.817Z,22.75
2022-10-04T03:24:38.494Z,22.58
2022-10-04T03:27:09.254Z,23.65
2022-10-04T03:29:43.194Z,24.46
2022-10-04T03:32:16.543Z,22.58
2022-10-04T03:34:52.430Z,22.85
2022-10-04T03:37:21.266Z,23.77
2022-10-04T03:39:54.187Z,23.21
2022-10-04T03:42:34.302Z,23.39
2022-10-04T03:45:05.817Z,23.54
2022-10-04T03:47:39.306Z,22.89
2022-10-04T03:50:29.320Z,22.68
2022-10-04T03:52:59.912Z,22.87
2022-10-04T03:55:38.794Z,23.22
2022-10-04T03:58:07.091Z,24.84
2022-10-04T04:00:40.432Z,25.07
2022-10-04T04:03:15.636Z,24.01
2022-10-04T04:05:53.378Z,25.22
2022-10-04T04:08:28.530Z,24.22
2022-10-04T04:10:58.158Z,23.66
2022-10-04T04:14:06.736Z,23.64
2022-10-04T04:16:36.318Z,23.68
2022-10-04T04:19:11.172Z,23.27
2022-10-04T04:21:38.362Z,22.95
2022-10-04T04:24:19.230Z,23.88
2022-10-04T04:26:50.384Z,24.94
2022-10-04T04:29:24.652Z,26.43
2022-10-04T04:32:17.349Z,25.53
2022-10-04T04:35:08.859Z,26.08
2022-10-04T04:37:36.945Z,26.33
2022-10-04T04:40:25.583Z,25.86
2022-10-04T04:42:52.853Z,25.22
2022-10-04T04:45:25.781Z,24.48
2022-10-04T04:47:56.788Z,25.21
2022-10-04T04:50:27.910Z,25.40
2022-10-04T04:53:14.607Z,26.21
2022-10-04T04:56:02.725Z,25.00
2022-10-04T04:58:38.069Z,24.09
2022-10-04T05:01:14.036Z,23.72
2022-10-04T05:03:41.536Z,24.88
2022-10-04T05:06:28.237Z,26.36
2022-10-04T05:08:55.215Z,25.12
2022-10-04T05:11:25.645Z,25.57
2022-10-04T05:14:00.829Z,25.09
2022-10-04T05:16:40.082Z,25.45
2022-10-04T05:19:13.463Z,26.50
2022-10-04T05:21:44.704Z,25.69
2022-10-04T05:24:18.454Z,24.69
2022-10-04T05:26:49.275Z,26.10
2022-10-04T05:29:21.372Z,24.42
2022-10-04T05:31:58.711Z,25.05
2022-10-04T05:34:29.089Z,25.04
2022-10-04T05:37:10.270Z,25.10
2022-10-04T05:39:48.294Z,25.78
2022-10-04T05:42:27.077Z,24.76
2022-10-04T05:44:58.256Z,25.81
2022-10-04T05:47:30.709Z,25.18
2022-10-04T05:50:00.143Z,23.85
2022-10-04T05:52:36.177Z,27.26
2022-10-04T05:55:12.112Z,26.28
2022-10-04T05:57:44.866Z,22.88
2022-10-04T06:00:17.786Z,23.17
2022-10-04T06:03:03.519Z,24.30
2022-10-04T06:05:52.010Z,25.24
2022-10-04T06:08:43.877Z,23.72
2022-10-04T06:11:29.541Z,22.71
2022-10-04T06:14:14.591Z,24.76
2022-10-04T06:16:59.315Z,23.41
2022-10-04T06:20:02.977Z,22.83
2022-10-04T06:22:30.410Z,23.91
2022-10-04T06:25:09.483Z,22.26
2022-10-04T06:27:50.177Z,23.24
2022-10-04T06:30:19.697Z,25.67
2022-10-04T06:33:10.774Z,27.61
2022-10-04T06:35:57.062Z,25.97
2022-10-04T06:38:54.602Z,26.62
2022-10-04T06:41:59.713Z,26.55
2022-10-04T06:45:07.186Z,25.49
2022-10-04T06:48:10.922Z,26.82
2022-10-04T06:50:55.959Z,30.57
2022-10-04T06:53:52.753Z,28.44
2022-10-04T06:56:26.049Z,29.42
2022-10-04T06:59:17.389Z,28.81
2022-10-04T07:02:00.469Z,27.21
2022-10-04T07:05:06.933Z,26.82
2022-10-04T07:07:37.989Z,26.41
2022-10-04T07:10:22.795Z,26.07
2022-10-04T07:13:16.357Z,27.28
2022-10-04T07:15:55.909Z,26.75
2022-10-04T07:18:29.103Z,25.78
2022-10-04T07:21:11.741Z,27.55
2022-10-04T07:23:52.539Z,26.44
2022-10-04T07:26:48.852Z,26.36
2022-10-04T07:29:22.201Z,27.05
2022-10-04T07:32:13.507Z,26.44
2022-10-04T07:35:26.600Z,25.66
2022-10-04T07:38:18.307Z,24.11
2022-10-04T07:41:12.665Z,24.57
2022-10-04T07:43:51.600Z,24.78
2022-10-04T07:46:38.617Z,24.90
2022-10-04T07:49:11.619Z,24.11
2022-10-04T07:51:45.941Z,24.15
2022-10-04T07:54:16.275Z,26.60
2022-10-04T07:56:42.966Z,25.14
2022-10-04T07:59:33.005Z,25.89
2022-10-04T08:02:18.958Z,24.75
2022-10-04T08:05:07.874Z,23.30
2022-10-04T08:08:03.832Z,22.75
2022-10-04T08:10:58.144Z,24.34
2022-10-04T08:13:46.030Z,24.99
2022-10-04T08:16:32.961Z,23.90
2022-10-04T08:19:36.630Z,23.54
2022-10-04T08:22:12.101Z,24.06
2022-10-04T08:24:59.007Z,25.95
2022-10-04T08:28:17.487Z,22.04
2022-10-04T08:31:12.266Z,24.25
2022-10-04T08:33:42.318Z,25.38
2022-10-04T08:36:46.659Z,25.81
2022-10-04T08:39:42.247Z,25.86
2022-10-04T08:42:37.063Z,22.60
2022-10-04T08:45:22.275Z,24.59
2022-10-04T08:47:58.314Z,25.65
2022-10-04T08:51:02.832Z,23.33
2022-10-04T08:54:00.558Z,21.43
2022-10-04T08:56:53.211Z,24.54
2022-10-04T08:59:40.987Z,21.89
2022-10-04T09:02:13.653Z,24.19
2022-10-04T09:05:19.670Z,22.67
2022-10-04T09:08:20.523Z,22.05
2022-10-04T09:11:11.359Z,22.78
2022-10-04T09:14:02.816Z,22.48
2022-10-04T09:16:55.218Z,22.66
2022-10-04T09:19:32.976Z,22.43
2022-10-04T09:22:19.889Z,21.47
2022-10-04T09:24:52.582Z,22.09
2022-10-04T09:27:57.018Z,22.90
2022-10-04T09:30:33.273Z,22.59
2022-10-04T09:33:28.282Z,23.61
2022-10-04T09:35:54.977Z,21.26
2022-10-04T09:38:41.163Z,20.47
2022-10-04T09:41:55.229Z,21.84
2022-10-04T09:44:52.845Z,19.87
2022-10-04T09:47:38.256Z,19.10
2022-10-04T09:50:26.854Z,19.37
2022-10-04T09:53:08.122Z,22.40
2022-10-04T09:55:53.267Z,22.28
2022-10-04T09:58:36.145Z,21.27
2022-10-04T10:01:02.812Z,21.34
2022-10-04T10:04:14.502Z,19.81
2022-10-04T10:07:11.818Z,18.96
2022-10-04T10:10:03.223Z,20.56
2022-10-04T10:13:05.235Z,19.68
2022-10-04T10:15:40.763Z,21.38
2022-10-04T10:18:29.410Z,23.24
2022-10-04T10:21:41.053Z,20.93
2022-10-04T10:24:33.729Z,22.29
2022-10-04T10:27:25.081Z,20.75
2022-10-04T10:29:59.462Z,22.73
2022-10-04T10:32:35.381Z,22.43
2022-10-04T10:35:23.424Z,22.69
2022-10-04T10:38:10.333Z,20.82
2022-10-04T10:40:59.961Z,20.54
2022-10-04T10:44:10.945Z,22.43
2022-10-04T10:46:55.617Z,21.06
2022-10-04T10:49:44.621Z,21.95
2022-10-04T10:52:35.980Z,20.65
2022-10-04T10:55:34.426Z,24.14
2022-10-04T10:58:16.203Z,21.53
2022-10-04T11:00:58.429Z,20.11
2022-10-04T11:03:53.781Z,22.10
2022-10-04T11:06:29.749Z,19.28
2022-10-04T11:09:15.031Z,19.26
2022-10-04T11:11:56.611Z,20.51
2022-10-04T11:14:38.348Z,22.21
2022-10-04T11:17:13.442Z,21.72
2022-10-04T11:20:05.843Z,22.68
2022-10-04T11:22:54.844Z,21.65
2022-10-04T11:25:25.306Z,21.24
2022-10-04T11:28:18.449Z,20.60
2022-10-04T11:30:46.142Z,22.44
2022-10-04T11:33:22.174Z,22.87
2022-10-04T11:35:58.571Z,21.04
2022-10-04T11:38:50.050Z,21.30
2022-10-04T11:41:43.011Z,21.63
2022-10-04T11:44:52.441Z,23.29
2022-10-04T11:47:37.566Z,23.33
2022-10-04T11:50:27.551Z,21.21
2022-10-04T11:53:25.969Z,23.50
2022-10-04T11:56:19.419Z,22.81
2022-10-04T11:59:00.385Z,22.03
2022-10-04T12:01:48.646Z,18.65
2022-10-04T12:04:30.721Z,21.28
2022-10-04T12:07:27.451Z,20.03
2022-10-04T12:10:15.787Z,22.11
2022-10-04T12:13:09.787Z,22.27
2022-10-04T12:16:12.937Z,19.86
2022-10-04T12:18:53.453Z,20.19
2022-10-04T12:21:41.596Z,22.77
2022-10-04T12:24:29.819Z,23.13
2022-10-04T12:27:02.939Z,19.91
2022-10-04T12:29:51.583Z,19.74
2022-10-04T12:32:24.691Z,17.35
2022-10-04T12:35:06.661Z,18.87
2022-10-04T12:37:42.868Z,18.60
2022-10-04T12:40:09.854Z,19.39
2022-10-04T12:42:58.606Z,19.88
2022-10-04T12:45:30.543Z,19.78
2022-10-04T12:48:05.828Z,20.33
2022-10-04T12:51:00.190Z,19.54
2022-10-04T12:53:34.684Z,21.23
2022-10-04T12:56:07.029Z,22.34
2022-10-04T12:58:52.226Z,20.12
2022-10-04T13:01:53.073Z,19.50
2022-10-04T13:04:32.746Z,20.78
2022-10-04T13:07:38.122Z,20.05
2022-10-04T13:10:25.074Z,21.98
2022-10-04T13:13:11.426Z,20.88
2022-10-04T13:18:48.337Z,21.44
2022-10-04T13:21:41.196Z,19.64
2022-10-04T13:24:16.896Z,20.52
2022-10-04T13:27:14.146Z,20.95
2022-10-04T13:29:56.561Z,19.54
2022-10-04T13:32:29.200Z,20.26
2022-10-04T13:35:14.523Z,20.59
2022-10-04T13:37:54.122Z,19.66
2022-10-04T13:40:30.759Z,21.06
2022-10-04T13:43:22.432Z,20.87
2022-10-04T13:46:15.429Z,19.95
2022-10-04T13:48:51.084Z,21.00
2022-10-04T13:51:26.641Z,19.72
2022-10-04T13:54:21.035Z,20.51
2022-10-04T13:56:56.690Z,18.85
2022-10-04T13:59:34.776Z,20.76
2022-10-04T14:02:13.529Z,22.82
2022-10-04T14:04:57.163Z,20.11
2022-10-04T14:07:48.210Z,19.93
2022-10-04T14:10:29.862Z,20.07
2022-10-04T14:13:03.354Z,19.11
2022-10-04T14:15:36.242Z,20.59
2022-10-04T14:18:32.258Z,21.90
2022-10-04T14:21:19.539Z,18.28
2022-10-04T14:24:17.095Z,17.92
2022-10-04T14:27:08.457Z,19.99
2022-10-04T14:29:45.264Z,18.82
2022-10-04T14:32:28.556Z,18.32
2022-10-04T14:35:15.526Z,19.65
2022-10-04T14:37:45.522Z,18.78
2022-10-04T14:40:21.577Z,19.21
2022-10-04T14:43:15.283Z,19.26
2022-10-04T14:46:00.122Z,18.88
2022-10-04T14:48:56.127Z,19.13
2022-10-04T14:51:40.186Z,20.75
2022-10-04T14:54:29.137Z,20.31
2022-10-04T14:57:00.722Z,21.26
2022-10-04T14:59:33.478Z,18.93
2022-10-04T15:02:03.739Z,21.69
2022-10-04T15:04:57.306Z,19.97
2022-10-04T15:07:39.496Z,21.85
2022-10-04T15:10:32.928Z,20.76
2022-10-04T15:13:25.746Z,21.08
2022-10-04T15:16:08.920Z,21.20
2022-10-04T15:18:47.421Z,21.15
2022-10-04T15:21:44.076Z,23.63
2022-10-04T15:24:27.508Z,20.74
2022-10-04T15:27:15.978Z,20.22
2022-10-04T15:30:17.222Z,22.66
2022-10-04T15:32:46.830Z,22.08
2022-10-04T15:35:22.162Z,23.01
2022-10-04T15:38:22.322Z,22.80
2022-10-04T15:41:08.401Z,21.21
2022-10-04T15:44:13.303Z,25.07
2022-10-04T15:47:01.673Z,25.57
2022-10-04T15:49:49.783Z,23.41
2022-10-04T15:52:38.118Z,23.74
2022-10-04T15:55:20.942Z,23.59
2022-10-04T15:57:47.556Z,23.73
2022-10-04T16:00:20.189Z,24.81
2022-10-04T16:02:49.591Z,24.29
2022-10-04T16:05:22.472Z,25.87
2022-10-04T16:08:10.005Z,24.48
2022-10-04T16:11:04.022Z,24.25
2022-10-04T16:13:43.116Z,25.80
2022-10-04T16:16:40.097Z,24.11
2022-10-04T16:19:48.994Z,24.79
2022-10-04T16:22:19.422Z,24.29
2022-10-04T16:24:50.576Z,23.91
2022-10-04T16:27:35.937Z,23.85
2022-10-04T16:30:44.172Z,24.09
2022-10-04T16:33:43.224Z,23.69
2022-10-04T16:36:14.663Z,24.03
2022-10-04T16:39:05.653Z,23.85
2022-10-04T16:41:41.367Z,24.34
2022-10-04T16:44:46.661Z,24.15
2022-10-04T16:47:48.821Z,23.41
2022-10-04T16:50:54.191Z,23.19
2022-10-04T16:53:39.518Z,22.58
2022-10-04T16:56:17.858Z,24.58
2022-10-04T16:58:44.876Z,23.94
2022-10-04T17:01:23.693Z,22.73
2022-10-04T17:04:27.946Z,22.52
2022-10-04T17:07:13.636Z,23.95
2022-10-04T17:09:49.550Z,23.66
2022-10-04T17:12:40.969Z,23.84
2022-10-04T17:15:15.345Z,24.54
2022-10-04T17:17:42.951Z,24.49
2022-10-04T17:20:51.217Z,24.21
2022-10-04T17:23:46.726Z,23.01
2022-10-04T17:26:22.406Z,22.66
2022-10-04T17:28:49.737Z,22.76
2022-10-04T17:31:44.019Z,22.97
2022-10-04T17:34:30.322Z,23.60
2022-10-04T17:37:20.939Z,23.23
2022-10-04T17:40:10.226Z,23.21
2022-10-04T17:43:00.228Z,23.11
2022-10-04T17:45:48.383Z,22.75
2022-10-04T17:48:37.939Z,22.80
2022-10-04T17:51:41.461Z,23.42
2022-10-04T17:54:38.842Z,23.14
2022-10-04T17:57:05.530Z,23.03
2022-10-04T17:59:52.962Z,22.91
2022-10-04T18:02:22.937Z,24.46
2022-10-04T18:04:55.701Z,23.17
2022-10-04T18:07:38.880Z,23.91
2022-10-04T18:10:27.459Z,24.37
2022-10-04T18:13:25.422Z,24.88
2022-10-04T18:16:14.469Z,24.44
2022-10-04T18:18:43.639Z,24.05
2022-10-04T18:21:22.395Z,25.90
2022-10-04T18:24:19.682Z,25.41
2022-10-04T18:27:05.081Z,26.60
2022-10-04T18:30:00.779Z,24.27
2022-10-04T18:32:27.743Z,25.28
2022-10-04T18:34:59.862Z,25.48
2022-10-04T18:37:39.490Z,22.74
2022-10-04T18:40:28.615Z,23.75
2022-10-04T18:42:57.955Z,22.76
2022-10-04T18:45:33.816Z,23.42
2022-10-04T18:48:13.755Z,22.47
2022-10-04T18:50:47.327Z,22.74
2022-10-04T18:53:44.891Z,22.68
2022-10-04T18:56:13.210Z,22.48
2022-10-04T18:59:32.774Z,22.87
2022-10-04T19:02:34.845Z,22.38
2022-10-04T19:05:24.030Z,24.15
2022-10-04T19:08:07.538Z,23.79
2022-10-04T19:10:50.235Z,23.88
2022-10-04T19:13:45.041Z,23.95
2022-10-04T19:16:20.674Z,24.35
2022-10-04T19:18:57.421Z,23.51
2022-10-04T19:21:39.965Z,22.92
2022-10-04T19:24:25.607Z,25.73
2022-10-04T19:27:03.125Z,26.19
2022-10-04T19:30:18.139Z,24.01
2022-10-04T19:32:57.400Z,24.00
2022-10-04T19:35:43.319Z,24.26
2022-10-04T19:38:37.274Z,23.24
2022-10-04T19:41:27.199Z,23.36
2022-10-04T19:44:14.329Z,23.75
2022-10-04T19:46:46.691Z,24.24
2022-10-04T19:49:26.559Z,24.08
2022-10-04T19:52:01.342Z,23.18
2022-10-04T19:54:36.618Z,23.66
2022-10-04T19:57:12.432Z,24.23
2022-10-04T19:59:41.957Z,24.44
2022-10-04T20:02:13.690Z,26.69
2022-10-04T20:04:42.507Z,24.61
2022-10-04T20:07:26.515Z,23.97
2022-10-04T20:09:54.245Z,23.21
2022-10-04T20:12:39.132Z,25.04
2022-10-04T20:15:15.637Z,26.04
2022-10-04T20:17:44.503Z,25.94
2022-10-04T20:20:16.402Z,24.13
2022-10-04T20:22:52.318Z,23.16
2022-10-04T20:25:45.964Z,26.10
2022-10-04T20:28:28.180Z,23.26
2022-10-04T20:31:03.273Z,24.82
2022-10-04T20:33:33.077Z,25.66
2022-10-04T20:36:01.010Z,24.83
2022-10-04T20:38:46.941Z,23.79
2022-10-04T20:41:29.489Z,24.68
2022-10-04T20:43:58.198Z,23.35
2022-10-04T20:46:27.061Z,24.08
2022-10-04T20:48:55.023Z,24.29
2022-10-04T20:51:24.609Z,25.62
2022-10-04T20:53:51.835Z,24.54
2022-10-04T20:56:31.325Z,24.89
2022-10-04T20:59:04.050Z,23.85
2022-10-04T21:01:45.847Z,24.62
2022-10-04T21:04:12.666Z,23.89
2022-10-04T21:06:56.716Z,22.35
2022-10-04T21:09:24.901Z,23.77
2022-10-04T21:11:53.118Z,23.90
2022-10-04T21:14:37.799Z,23.50
2022-10-04T21:17:25.391Z,23.25
2022-10-04T21:19:52.269Z,23.42
2022-10-04T21:22:19.152Z,23.42
2022-10-04T21:24:48.996Z,23.04
2022-10-04T21:27:38.080Z,23.17
2022-10-04T21:30:14.500Z,23.35
2022-10-04T21:32:41.444Z,24.41
2022-10-04T21:35:09.264Z,23.92
2022-10-04T21:37:36.672Z,22.90
2022-10-04T21:40:05.433Z,22.95
2022-10-04T21:42:32.259Z,23.80
2022-10-04T21:44:58.993Z,24.59
2022-10-04T21:47:25.696Z,24.28
2022-10-04T21:49:52.809Z,22.92
2022-10-04T21:52:19.693Z,23.42
2022-10-04T21:54:47.307Z,23.76
2022-10-04T21:57:14.074Z,23.25
2022-10-04T21:59:40.809Z,23.80
2022-10-04T22:02:07.919Z,23.52
2022-10-04T22:04:34.993Z,24.13
2022-10-04T22:07:02.193Z,22.87
2022-10-04T22:09:29.258Z,23.99
2022-10-04T22:11:56.129Z,23.95
2022-10-04T22:14:22.911Z,23.29
2022-10-04T22:16:50.411Z,22.62
2022-10-04T22:19:17.634Z,23.02
2022-10-04T22:21:44.302Z,24.20
2022-10-04T22:24:17.707Z,24.62
2022-10-04T22:26:45.864Z,23.50
2022-10-04T22:29:17.849Z,23.83
2022-10-04T22:31:53.667Z,23.87
2022-10-04T22:34:22.877Z,22.91
2022-10-04T22:36:52.171Z,24.46
2022-10-04T22:39:20.403Z,24.10
2022-10-04T22:42:00.985Z,23.47
2022-10-04T22:44:38.871Z,23.26
2022-10-04T22:47:11.303Z,22.70
2022-10-04T22:49:41.766Z,22.88
2022-10-04T22:52:21.480Z,22.87
2022-10-04T22:54:50.759Z,22.67
2022-10-04T22:57:19.342Z,23.79
2022-10-04T22:59:52.949Z,23.47
2022-10-04T23:02:28.089Z,23.21
2022-10-04T23:05:02.321Z,22.58
2022-10-04T23:07:29.376Z,23.71
2022-10-04T23:09:56.111Z,22.44
2022-10-04T23:12:22.888Z,23.45
2022-10-04T23:14:49.646Z,24.62
2022-10-04T23:17:50.965Z,23.32
2022-10-04T23:20:20.544Z,22.72
2022-10-04T23:22:50.450Z,24.62
2022-10-04T23:25:30.650Z,23.53
2022-10-04T23:28:01.509Z,22.86
2022-10-04T23:30:28.473Z,23.05
2022-10-04T23:32:58.480Z,23.68
2022-10-04T23:35:30.450Z,23.71
2022-10-04T23:37:57.704Z,24.19
2022-10-04T23:40:25.832Z,22.76
2022-10-04T23:42:56.530Z,23.07
2022-10-04T23:45:25.912Z,23.19
2022-10-04T23:47:58.949Z,22.80
2022-10-04T23:50:29.777Z,23.04
2022-10-04T23:53:02.667Z,24.13
2022-10-04T23:55:35.204Z,23.23
2022-10-04T23:58:02.060Z,23.13
